Etusivu
METAR-TAF:

METAR-TAF

Lentoasemat :

Portage Glacier, Alaska, Yhdysvallat

Leveyspiiri: 60-47N, Pituuspiiri: 148-50W, korkeus merenpinnasta: 29 m

Tämänhetkinen sää

Tämä raportti tehtiin 13 minuuttia sitten, kello 16.22 UTC
Tuuli 3 kn etelästä/kaakosta
Lämpötila 10°C
Kosteus 82%
Ilmanpaine 1028 hPa
Näkyvyys: 16.1 km
Pilvistä 1500 ft:n korkeudessa

METAR: PATO 201622Z AUTO 15003KT 10SM OVC015 10/07 A3035 RMK AO2 T01000072 TSNO

Aika: 08:35 (16:35 UTC)


TAF: puuttuu

Säähavainnot ja -ennusteet yli 4000 lentoasemalta (METAR- ja TAF-raportit).

Käytössä olevat sääasemat on merkitty karttaan keltaisilla ja punaisilla pisteillä.

Aseta hiiri pisteen päälle nähdäksesi sääaseman nimen.

Klikkaa sitten nähdäksesi säähavainnot ja -ennusteet.

Kartan vaihtaminen: klikkaa mustalla rastilla varustettuja vihreitä pisteitä, niin voit zoomata sisään; viivalla varustettua vihreää pistettä, niin voit zoomata ulos tai vihreitä nuolia, niin pääset viereisille kartoille.


METAR-TAF: